createdAt,value
2019-02-24T00:00:34.137Z,29.17
2019-02-24T00:03:06.668Z,28.47
2019-02-24T00:05:37.305Z,30.23
2019-02-24T00:08:08.061Z,33.53
2019-02-24T00:10:38.886Z,31.53
2019-02-24T00:13:09.729Z,33.07
2019-02-24T00:15:40.341Z,33.40
2019-02-24T00:18:11.274Z,36.53
2019-02-24T00:20:42.742Z,33.93
2019-02-24T00:23:13.584Z,32.57
2019-02-24T00:25:44.168Z,36.30
2019-02-24T00:28:14.925Z,37.83
2019-02-24T00:30:45.968Z,36.00
2019-02-24T00:33:16.601Z,35.30
2019-02-24T00:35:47.517Z,32.93
2019-02-24T00:38:18.322Z,33.57
2019-02-24T00:40:48.933Z,33.77
2019-02-24T00:43:19.541Z,32.97
2019-02-24T00:45:50.226Z,36.13
2019-02-24T00:48:21.134Z,33.23
2019-02-24T00:50:52.008Z,32.40
2019-02-24T00:53:22.607Z,31.30
2019-02-24T00:55:53.500Z,35.30
2019-02-24T00:58:24.213Z,34.07
2019-02-24T01:00:54.991Z,32.97
2019-02-24T01:03:25.785Z,34.93
2019-02-24T01:05:56.703Z,32.30
2019-02-24T01:08:27.691Z,34.57
2019-02-24T01:10:58.977Z,30.37
2019-02-24T01:13:30.015Z,32.97
2019-02-24T01:16:00.903Z,32.67
2019-02-24T01:18:31.724Z,34.83
2019-02-24T01:21:04.037Z,29.40
2019-02-24T01:23:34.855Z,31.70
2019-02-24T01:26:05.846Z,31.17
2019-02-24T01:28:36.949Z,30.43
2019-02-24T01:31:08.056Z,29.60
2019-02-24T01:33:38.769Z,27.83
2019-02-24T01:36:10.011Z,30.13
2019-02-24T01:38:40.715Z,27.67
2019-02-24T01:41:11.453Z,27.67
2019-02-24T01:43:41.985Z,29.17
2019-02-24T01:46:13.054Z,30.37
2019-02-24T01:48:43.974Z,32.57
2019-02-24T01:51:14.869Z,33.07
2019-02-24T01:53:45.812Z,31.97
2019-02-24T01:56:16.628Z,30.73
2019-02-24T01:58:47.926Z,31.27
2019-02-24T02:01:18.427Z,32.80
2019-02-24T02:03:50.412Z,32.90
2019-02-24T02:06:21.515Z,30.03
2019-02-24T02:08:52.428Z,30.77
2019-02-24T02:11:22.946Z,32.37
2019-02-24T02:13:53.975Z,33.73
2019-02-24T02:16:24.769Z,35.13
2019-02-24T02:18:56.697Z,35.10
2019-02-24T02:21:28.844Z,34.10
2019-02-24T02:23:59.593Z,34.60
2019-02-24T02:26:30.331Z,30.60
2019-02-24T02:29:00.961Z,34.77
2019-02-24T02:31:31.677Z,33.90
2019-02-24T02:34:02.611Z,34.60
2019-02-24T02:36:33.400Z,33.40
2019-02-24T02:39:04.587Z,32.57
2019-02-24T02:41:38.826Z,30.20
2019-02-24T02:44:09.439Z,28.67
2019-02-24T02:46:40.272Z,27.80
2019-02-24T02:49:10.798Z,31.03
2019-02-24T02:51:41.368Z,30.47
2019-02-24T02:54:13.479Z,27.97
2019-02-24T02:56:44.419Z,29.77
2019-02-24T02:59:15.000Z,30.20
2019-02-24T03:01:47.276Z,30.90
2019-02-24T03:04:18.212Z,29.87
2019-02-24T03:07:05.432Z,28.53
2019-02-24T03:09:36.023Z,27.97
2019-02-24T03:12:06.939Z,27.73
2019-02-24T03:14:37.760Z,26.87
2019-02-24T03:17:08.697Z,28.60
2019-02-24T03:19:39.390Z,29.30
2019-02-24T03:22:09.936Z,27.77
2019-02-24T03:24:40.628Z,28.97
2019-02-24T03:27:11.360Z,26.77
2019-02-24T03:29:41.974Z,27.90
2019-02-24T03:32:12.938Z,27.13
2019-02-24T03:34:44.668Z,27.80
2019-02-24T03:37:15.310Z,27.97
2019-02-24T03:39:45.783Z,27.07
2019-02-24T03:42:16.393Z,29.90
2019-02-24T03:44:47.177Z,28.70
2019-02-24T03:47:17.978Z,29.73
2019-02-24T03:49:48.517Z,29.63
2019-02-24T03:52:19.331Z,27.87
2019-02-24T03:54:50.581Z,27.97
2019-02-24T03:57:21.254Z,29.23
2019-02-24T03:59:52.067Z,30.80
2019-02-24T04:02:22.705Z,28.07
2019-02-24T04:04:53.742Z,29.23
2019-02-24T04:07:24.578Z,28.93
2019-02-24T04:09:55.189Z,28.53
2019-02-24T04:12:25.987Z,31.93
2019-02-24T04:14:57.004Z,31.03
2019-02-24T04:17:28.795Z,32.27
2019-02-24T04:19:59.558Z,33.83
2019-02-24T04:22:30.700Z,31.90
2019-02-24T04:25:01.337Z,33.93
2019-02-24T04:27:32.223Z,29.87
2019-02-24T04:30:02.812Z,32.07
2019-02-24T04:32:34.565Z,32.97
2019-02-24T04:35:05.099Z,33.40
2019-02-24T04:37:35.820Z,34.00
2019-02-24T04:40:06.902Z,34.20
2019-02-24T04:42:37.635Z,33.67
2019-02-24T04:45:08.580Z,32.10
2019-02-24T04:47:39.431Z,36.07
2019-02-24T04:50:10.507Z,37.23
2019-02-24T04:52:41.827Z,39.17
2019-02-24T04:55:12.893Z,40.97
2019-02-24T04:57:43.417Z,36.47
2019-02-24T05:00:14.276Z,40.67
2019-02-24T05:02:45.448Z,37.13
2019-02-24T05:05:16.639Z,40.23
2019-02-24T05:07:47.525Z,40.63
2019-02-24T05:10:18.515Z,40.73
2019-02-24T05:12:49.522Z,36.80
2019-02-24T05:15:20.337Z,41.47
2019-02-24T05:17:51.307Z,40.03
2019-02-24T05:20:22.505Z,38.53
2019-02-24T05:22:53.408Z,41.07
2019-02-24T05:25:24.186Z,40.93
2019-02-24T05:27:55.457Z,38.17
2019-02-24T05:30:26.351Z,38.23
2019-02-24T05:32:57.114Z,39.13
2019-02-24T05:35:28.236Z,35.90
2019-02-24T05:37:59.380Z,36.63
2019-02-24T05:40:30.040Z,38.60
2019-02-24T05:43:01.085Z,36.60
2019-02-24T05:45:31.691Z,32.40
2019-02-24T05:48:02.453Z,34.80
2019-02-24T05:50:34.321Z,32.57
2019-02-24T05:53:05.068Z,31.80
2019-02-24T05:55:35.830Z,32.17
2019-02-24T05:58:06.328Z,30.67
2019-02-24T06:00:37.371Z,30.87
2019-02-24T06:03:08.822Z,30.50
2019-02-24T06:05:40.640Z,33.37
2019-02-24T06:08:11.446Z,31.90
2019-02-24T06:10:42.280Z,30.50
2019-02-24T06:13:13.186Z,30.23
2019-02-24T06:15:44.852Z,31.60
2019-02-24T06:18:15.594Z,28.63
2019-02-24T06:20:46.427Z,30.47
2019-02-24T06:23:18.319Z,29.63
2019-02-24T06:25:49.025Z,32.30
2019-02-24T06:28:20.891Z,30.47
2019-02-24T06:30:51.762Z,30.77
2019-02-24T06:33:22.298Z,32.60
2019-02-24T06:35:52.785Z,31.23
2019-02-24T06:38:23.333Z,33.70
2019-02-24T06:40:54.074Z,32.33
2019-02-24T06:43:24.897Z,30.23
2019-02-24T06:45:55.501Z,31.10
2019-02-24T06:48:26.305Z,31.87
2019-02-24T06:51:00.128Z,32.57
2019-02-24T06:53:31.229Z,31.03
2019-02-24T06:56:01.966Z,30.50
2019-02-24T06:58:32.991Z,30.57
2019-02-24T07:01:03.806Z,30.17
2019-02-24T07:03:34.799Z,29.50
2019-02-24T07:06:05.571Z,29.00
2019-02-24T07:08:36.811Z,25.27
2019-02-24T07:11:07.492Z,27.70
2019-02-24T07:13:38.712Z,24.40
2019-02-24T07:16:09.690Z,23.27
2019-02-24T07:18:41.020Z,22.20
2019-02-24T07:21:13.512Z,21.17
2019-02-24T07:23:45.624Z,22.07
2019-02-24T07:26:17.118Z,20.93
2019-02-24T07:28:47.978Z,21.03
2019-02-24T07:31:19.198Z,21.30
2019-02-24T07:33:50.452Z,21.90
2019-02-24T07:36:21.579Z,19.13
2019-02-24T07:38:53.041Z,20.87
2019-02-24T07:41:23.841Z,19.40
2019-02-24T07:43:54.919Z,17.53
2019-02-24T07:46:26.368Z,17.80
2019-02-24T07:48:57.346Z,17.27
2019-02-24T07:51:27.972Z,17.20
2019-02-24T07:53:59.018Z,15.77
2019-02-24T07:56:30.667Z,16.10
2019-02-24T07:59:01.333Z,14.93
2019-02-24T08:01:33.112Z,14.97
2019-02-24T08:04:03.997Z,14.77
2019-02-24T08:06:34.902Z,15.50
2019-02-24T08:09:06.592Z,14.07
2019-02-24T08:11:37.833Z,15.50
2019-02-24T08:14:08.909Z,15.00
2019-02-24T08:16:40.771Z,15.07
2019-02-24T08:19:13.011Z,14.10
2019-02-24T08:21:43.631Z,15.90
2019-02-24T08:24:14.151Z,16.30
2019-02-24T08:26:44.844Z,14.33
2019-02-24T08:29:15.790Z,14.77
2019-02-24T08:31:46.560Z,14.37
2019-02-24T08:34:17.476Z,14.23
2019-02-24T08:36:48.106Z,14.07
2019-02-24T08:39:19.896Z,12.53
2019-02-24T08:41:50.702Z,13.13
2019-02-24T08:44:22.262Z,14.03
2019-02-24T08:46:53.568Z,13.50
2019-02-24T08:49:24.782Z,13.27
2019-02-24T08:51:55.490Z,12.60
2019-02-24T08:54:27.076Z,13.63
2019-02-24T08:56:57.826Z,13.90
2019-02-24T08:59:29.331Z,12.10
2019-02-24T09:02:00.080Z,16.67
2019-02-24T09:04:31.336Z,18.03
2019-02-24T09:07:02.170Z,21.23
2019-02-24T09:09:33.621Z,13.97
2019-02-24T09:12:04.365Z,13.50
2019-02-24T09:14:35.337Z,13.70
2019-02-24T09:17:06.340Z,13.47
2019-02-24T09:19:37.184Z,13.97
2019-02-24T09:22:08.125Z,13.70
2019-02-24T09:24:38.991Z,15.27
2019-02-24T09:27:10.075Z,15.87
2019-02-24T09:29:41.053Z,15.70
2019-02-24T09:32:11.892Z,15.83
2019-02-24T09:34:44.019Z,15.80
2019-02-24T09:37:14.785Z,15.30
2019-02-24T09:39:45.796Z,14.30
2019-02-24T09:42:16.738Z,15.63
2019-02-24T09:44:48.866Z,15.37
2019-02-24T09:47:20.079Z,17.60
2019-02-24T09:49:50.977Z,17.90
2019-02-24T09:52:21.938Z,17.37
2019-02-24T09:54:53.678Z,16.17
2019-02-24T09:57:24.522Z,17.50
2019-02-24T09:59:55.799Z,21.67
2019-02-24T10:02:26.880Z,17.23
2019-02-24T10:04:57.747Z,22.43
2019-02-24T10:07:28.439Z,27.30
2019-02-24T10:09:59.582Z,17.50
2019-02-24T10:12:30.376Z,18.40
2019-02-24T10:15:01.538Z,16.60
2019-02-24T10:17:32.247Z,17.27
2019-02-24T10:20:03.009Z,17.73
2019-02-24T10:22:34.432Z,18.43
2019-02-24T10:25:06.001Z,17.87
2019-02-24T10:27:37.136Z,18.37
2019-02-24T10:30:08.851Z,17.47
2019-02-24T10:32:39.996Z,19.17
2019-02-24T10:35:10.688Z,19.07
2019-02-24T10:37:41.859Z,18.17
2019-02-24T10:40:13.754Z,17.40
2019-02-24T10:42:45.015Z,17.47
2019-02-24T10:45:16.983Z,18.97
2019-02-24T10:47:47.873Z,18.77
2019-02-24T10:50:19.253Z,19.37
2019-02-24T10:52:50.159Z,19.43
2019-02-24T10:55:21.228Z,20.43
2019-02-24T10:57:52.215Z,18.67
2019-02-24T11:00:23.623Z,18.83
2019-02-24T11:02:55.884Z,18.73
2019-02-24T11:05:27.043Z,18.30
2019-02-24T11:07:58.560Z,18.20
2019-02-24T11:10:29.523Z,17.30
2019-02-24T11:13:01.029Z,17.03
2019-02-24T11:15:32.302Z,18.77
2019-02-24T11:18:04.210Z,18.10
2019-02-24T11:20:35.716Z,20.50
2019-02-24T11:23:06.504Z,38.23
2019-02-24T11:25:37.720Z,17.40
2019-02-24T11:28:08.683Z,16.90
2019-02-24T11:30:39.863Z,17.00
2019-02-24T11:33:10.636Z,20.20
2019-02-24T11:35:41.890Z,20.00
2019-02-24T11:38:12.569Z,19.50
2019-02-24T11:40:43.928Z,19.40
2019-02-24T11:43:15.466Z,20.10
2019-02-24T11:45:46.278Z,18.57
2019-02-24T11:48:17.403Z,17.97
2019-02-24T11:50:48.022Z,17.77
2019-02-24T11:53:18.615Z,17.97
2019-02-24T11:55:49.688Z,18.67
2019-02-24T11:58:20.295Z,17.77
2019-02-24T12:00:51.185Z,17.67
2019-02-24T12:03:21.903Z,18.07
2019-02-24T12:05:52.583Z,19.23
2019-02-24T12:08:23.593Z,19.03
2019-02-24T12:10:54.574Z,16.87
2019-02-24T12:13:25.085Z,17.00
2019-02-24T12:15:56.017Z,15.80
2019-02-24T12:18:28.230Z,16.87
2019-02-24T12:20:59.416Z,16.33
2019-02-24T12:23:30.284Z,15.23
2019-02-24T12:26:01.274Z,15.37
2019-02-24T12:28:32.074Z,16.03
2019-02-24T12:31:02.822Z,16.00
2019-02-24T12:33:33.528Z,14.23
2019-02-24T12:36:05.537Z,14.80
2019-02-24T12:38:36.733Z,14.03
2019-02-24T12:41:07.800Z,13.93
2019-02-24T12:43:38.848Z,13.47
2019-02-24T12:46:10.012Z,16.13
2019-02-24T12:48:41.372Z,15.07
2019-02-24T12:51:12.460Z,13.97
2019-02-24T12:53:43.401Z,13.00
2019-02-24T12:56:14.989Z,13.77
2019-02-24T12:58:46.770Z,12.70
2019-02-24T13:01:17.994Z,16.03
2019-02-24T13:03:49.222Z,14.70
2019-02-24T13:06:20.208Z,13.03
2019-02-24T13:08:51.337Z,13.13
2019-02-24T13:11:22.449Z,22.07
2019-02-24T13:13:53.369Z,15.37
2019-02-24T13:16:24.093Z,12.60
2019-02-24T13:18:55.181Z,14.33
2019-02-24T13:21:26.396Z,14.07
2019-02-24T13:23:57.942Z,13.97
2019-02-24T13:26:29.079Z,14.43
2019-02-24T13:29:00.193Z,14.23
2019-02-24T13:31:31.538Z,14.47
2019-02-24T13:34:02.910Z,12.73
2019-02-24T13:36:34.891Z,15.50
2019-02-24T13:39:07.398Z,16.60
2019-02-24T13:41:38.893Z,15.23
2019-02-24T13:44:10.198Z,18.90
2019-02-24T13:46:41.550Z,15.37
2019-02-24T13:49:13.474Z,18.13
2019-02-24T13:51:45.650Z,15.63
2019-02-24T13:54:16.682Z,15.63
2019-02-24T13:56:47.551Z,21.50
2019-02-24T13:59:18.536Z,21.67
2019-02-24T14:01:49.639Z,16.43
2019-02-24T14:04:21.546Z,17.17
2019-02-24T14:06:52.564Z,16.60
2019-02-24T14:09:23.040Z,17.27
2019-02-24T14:11:53.883Z,20.67
2019-02-24T14:14:24.934Z,26.80
2019-02-24T14:16:57.362Z,20.33
2019-02-24T14:19:28.745Z,16.60
2019-02-24T14:21:59.840Z,16.97
2019-02-24T14:24:32.600Z,17.83
2019-02-24T14:27:03.879Z,19.87
2019-02-24T14:29:35.306Z,18.97
2019-02-24T14:32:06.326Z,20.03
2019-02-24T14:34:37.923Z,18.73
2019-02-24T14:37:09.966Z,18.93
2019-02-24T14:39:41.069Z,19.43
2019-02-24T14:42:13.275Z,19.27
2019-02-24T14:44:44.183Z,20.37
2019-02-24T14:47:15.049Z,19.57
2019-02-24T14:49:45.859Z,19.47
2019-02-24T14:52:17.103Z,18.53
2019-02-24T14:54:47.989Z,18.87
2019-02-24T14:57:18.652Z,20.20
2019-02-24T14:59:49.701Z,20.60
2019-02-24T15:02:21.033Z,21.13
2019-02-24T15:04:51.888Z,18.90
2019-02-24T15:07:23.478Z,21.57
2019-02-24T15:09:54.264Z,21.73
2019-02-24T15:12:25.139Z,20.93
2019-02-24T15:14:56.097Z,20.90
2019-02-24T15:17:26.812Z,21.13
2019-02-24T15:19:58.087Z,20.83
2019-02-24T15:22:28.919Z,18.70
2019-02-24T15:24:59.907Z,18.30
2019-02-24T15:27:30.937Z,19.87
2019-02-24T15:30:01.981Z,19.27
2019-02-24T15:32:33.214Z,19.83
2019-02-24T15:35:04.477Z,18.73
2019-02-24T15:37:36.396Z,19.83
2019-02-24T15:40:08.084Z,31.63
2019-02-24T15:42:38.718Z,22.37
2019-02-24T15:45:09.896Z,19.83
2019-02-24T15:47:40.970Z,17.97
2019-02-24T15:50:12.138Z,18.40
2019-02-24T15:52:42.850Z,18.07
2019-02-24T15:55:13.904Z,17.67
2019-02-24T15:57:44.950Z,17.03
2019-02-24T16:00:17.374Z,17.87
2019-02-24T16:02:48.302Z,18.73
2019-02-24T16:05:19.371Z,18.50
2019-02-24T16:07:50.665Z,17.33
2019-02-24T16:10:21.935Z,18.83
2019-02-24T16:12:53.215Z,19.07
2019-02-24T16:15:24.367Z,17.53
2019-02-24T16:17:55.499Z,18.03
2019-02-24T16:20:27.018Z,19.27
2019-02-24T16:22:58.539Z,19.53
2019-02-24T16:25:29.598Z,18.53
2019-02-24T16:28:02.296Z,20.50
2019-02-24T16:30:33.094Z,21.03
2019-02-24T16:33:10.239Z,20.60
2019-02-24T16:35:36.039Z,22.53
2019-02-24T16:38:06.697Z,19.80
2019-02-24T16:40:38.222Z,21.93
2019-02-24T16:43:09.092Z,21.97
2019-02-24T16:45:39.675Z,22.50
2019-02-24T16:48:10.433Z,22.77
2019-02-24T16:50:42.234Z,22.40
2019-02-24T16:53:13.135Z,21.30
2019-02-24T16:55:43.813Z,21.97
2019-02-24T16:58:14.501Z,21.90
2019-02-24T17:00:45.867Z,22.00
2019-02-24T17:03:19.846Z,21.77
2019-02-24T17:05:49.617Z,21.40
2019-02-24T17:08:20.979Z,20.83
2019-02-24T17:10:52.045Z,21.13
2019-02-24T17:13:23.010Z,21.13
2019-02-24T17:15:53.783Z,21.27
2019-02-24T17:18:25.008Z,20.70
2019-02-24T17:20:56.839Z,21.10
2019-02-24T17:23:27.674Z,20.97
2019-02-24T17:25:58.403Z,18.33
2019-02-24T17:28:29.265Z,21.23
2019-02-24T17:31:00.132Z,21.83
2019-02-24T17:33:32.683Z,20.13
2019-02-24T17:36:03.873Z,21.97
2019-02-24T17:38:34.882Z,26.57
2019-02-24T17:41:05.810Z,24.10
2019-02-24T17:43:36.441Z,23.30
2019-02-24T17:46:07.617Z,22.67
2019-02-24T17:48:38.543Z,25.43
2019-02-24T17:51:09.788Z,22.27
2019-02-24T17:53:40.533Z,21.07
2019-02-24T17:56:11.876Z,21.03
2019-02-24T17:58:43.751Z,21.87
2019-02-24T18:01:14.687Z,20.80
2019-02-24T18:03:45.379Z,21.20
2019-02-24T18:06:16.409Z,21.23
2019-02-24T18:08:47.638Z,20.20
2019-02-24T18:11:18.922Z,23.10
2019-02-24T18:13:50.039Z,20.53
2019-02-24T18:16:21.440Z,21.60
2019-02-24T18:18:51.389Z,22.80
2019-02-24T18:21:22.730Z,21.57
2019-02-24T18:23:56.121Z,21.97
2019-02-24T18:26:27.370Z,21.87
2019-02-24T18:28:58.667Z,22.10
2019-02-24T18:31:30.014Z,19.67
2019-02-24T18:34:01.128Z,19.90
2019-02-24T18:36:32.744Z,19.63
2019-02-24T18:39:05.525Z,20.27
2019-02-24T18:41:38.180Z,19.80
2019-02-24T18:44:09.119Z,18.87
2019-02-24T18:46:39.980Z,22.37
2019-02-24T18:49:13.292Z,19.07
2019-02-24T18:51:44.549Z,20.33
2019-02-24T18:54:15.635Z,22.10
2019-02-24T18:56:51.402Z,19.70
2019-02-24T18:59:28.244Z,22.03
2019-02-24T19:01:59.389Z,20.63
2019-02-24T19:04:30.225Z,20.57
2019-02-24T19:07:01.070Z,22.07
2019-02-24T19:09:32.134Z,19.83
2019-02-24T19:12:03.321Z,21.30
2019-02-24T19:14:34.257Z,20.03
2019-02-24T19:17:05.535Z,21.17
2019-02-24T19:19:36.507Z,21.53
2019-02-24T19:22:07.457Z,20.90
2019-02-24T19:24:38.658Z,23.43
2019-02-24T19:27:10.829Z,22.43
2019-02-24T19:29:41.481Z,46.07
2019-02-24T19:32:12.374Z,29.07
2019-02-24T19:34:43.313Z,30.00
2019-02-24T19:37:14.213Z,21.47
2019-02-24T19:39:46.292Z,20.67
2019-02-24T19:42:17.497Z,20.40
2019-02-24T19:44:48.525Z,22.30
2019-02-24T19:47:19.638Z,23.77
2019-02-24T19:49:50.557Z,23.50
2019-02-24T19:52:21.571Z,23.17
2019-02-24T19:54:55.167Z,22.40
2019-02-24T19:57:26.351Z,25.07
2019-02-24T19:59:57.798Z,23.10
2019-02-24T20:02:29.820Z,24.33
2019-02-24T20:05:01.113Z,25.03
2019-02-24T20:07:32.142Z,26.70
2019-02-24T20:10:03.286Z,29.30
2019-02-24T20:12:34.392Z,27.60
2019-02-24T20:15:06.477Z,28.37
2019-02-24T20:17:37.460Z,24.93
2019-02-24T20:20:09.311Z,27.87
2019-02-24T20:22:40.644Z,26.80
2019-02-24T20:25:12.001Z,27.47
2019-02-24T20:27:43.394Z,27.57
2019-02-24T20:30:16.661Z,26.60
2019-02-24T20:32:48.516Z,30.00
2019-02-24T20:35:19.502Z,26.87
2019-02-24T20:37:50.255Z,27.03
2019-02-24T20:40:21.602Z,25.60
2019-02-24T20:42:52.609Z,24.57
2019-02-24T20:45:25.948Z,24.03
2019-02-24T20:47:56.692Z,26.43
2019-02-24T20:50:29.287Z,29.90
2019-02-24T20:53:00.341Z,26.77
2019-02-24T20:55:31.167Z,25.83
2019-02-24T20:58:02.905Z,26.03
2019-02-24T21:00:36.548Z,27.37
2019-02-24T21:03:07.868Z,25.57
2019-02-24T21:05:38.737Z,24.53
2019-02-24T21:08:09.646Z,26.73
2019-02-24T21:10:40.715Z,26.57
2019-02-24T21:13:11.513Z,27.93
2019-02-24T21:15:42.970Z,30.03
2019-02-24T21:18:14.672Z,29.10
2019-02-24T21:20:45.915Z,29.47
2019-02-24T21:23:19.195Z,27.17
2019-02-24T21:25:50.815Z,28.53
2019-02-24T21:28:22.483Z,26.90
2019-02-24T21:30:53.950Z,27.07
2019-02-24T21:33:25.457Z,26.70
2019-02-24T21:35:56.959Z,25.90
2019-02-24T21:38:27.995Z,28.07
2019-02-24T21:40:59.070Z,26.20
2019-02-24T21:43:29.941Z,26.73
2019-02-24T21:46:01.048Z,23.40
2019-02-24T21:48:32.436Z,27.93
2019-02-24T21:51:03.268Z,26.50
2019-02-24T21:53:34.106Z,24.03
2019-02-24T21:56:05.297Z,23.80
2019-02-24T21:58:36.084Z,26.67
2019-02-24T22:01:07.604Z,23.83
2019-02-24T22:03:38.817Z,24.57
2019-02-24T22:06:09.714Z,26.23
2019-02-24T22:08:40.661Z,23.67
2019-02-24T22:11:11.301Z,24.97
2019-02-24T22:13:43.582Z,23.93
2019-02-24T22:16:22.526Z,23.30
2019-02-24T22:18:53.550Z,23.97
2019-02-24T22:21:26.185Z,25.30
2019-02-24T22:23:57.368Z,24.37
2019-02-24T22:26:28.520Z,24.23
2019-02-24T22:28:59.931Z,24.30
2019-02-24T22:31:31.079Z,26.73
2019-02-24T22:34:02.098Z,29.47
2019-02-24T22:36:33.181Z,28.73
2019-02-24T22:39:04.676Z,28.20
2019-02-24T22:41:37.306Z,28.10
2019-02-24T22:44:07.880Z,28.00
2019-02-24T22:46:38.933Z,25.83
2019-02-24T22:49:10.198Z,27.60
2019-02-24T22:51:42.208Z,24.77
2019-02-24T22:54:12.836Z,23.33
2019-02-24T22:56:43.786Z,25.30
2019-02-24T22:59:14.550Z,27.97
2019-02-24T23:01:46.864Z,29.17
2019-02-24T23:04:17.752Z,30.27
2019-02-24T23:06:48.750Z,31.53
2019-02-24T23:09:20.710Z,30.20
2019-02-24T23:11:52.460Z,29.30
2019-02-24T23:14:24.233Z,30.57
2019-02-24T23:16:55.648Z,31.77
2019-02-24T23:19:26.798Z,30.43
2019-02-24T23:21:57.576Z,30.43
2019-02-24T23:24:28.772Z,29.77
2019-02-24T23:27:00.974Z,31.23
2019-02-24T23:29:31.994Z,28.37
2019-02-24T23:32:02.806Z,29.53
2019-02-24T23:34:33.816Z,28.67
2019-02-24T23:37:04.611Z,28.03
2019-02-24T23:39:35.407Z,26.13
2019-02-24T23:42:06.126Z,25.53
2019-02-24T23:44:37.778Z,25.53
2019-02-24T23:47:08.413Z,22.13
2019-02-24T23:49:39.485Z,21.33
2019-02-24T23:52:10.205Z,20.23
2019-02-24T23:54:41.519Z,22.60
2019-02-24T23:57:12.526Z,21.40
2019-02-24T23:59:45.280Z,20.47
